Date,TemperatureHighF,TemperatureAvgF,TemperatureLowF,DewpointHighF,DewpointAvgF,DewpointLowF,HumidityHigh,HumidityAvg,HumidityLow,PressureMaxIn,PressureMinIn,WindSpeedMaxMPH,WindSpeedAvgMPH,GustSpeedMaxMPH,PrecipitationSumIn
2013-1-1,15,8,4,8,3,-1,83,78,72,0.00,40.00,10,4,14,0.03
2013-1-2,20,11,6,7,-2,-100,83,65,52,0.00,40.00,12,6,16,0.02
2013-1-3,20,9,1,-1,-4,-9,70,54,39,0.00,40.00,13,5,18,0.01
2013-1-4,30,16,7,6,0,-3,64,49,30,0.00,40.00,8,2,12,0.02
2013-1-5,35,20,8,7,1,-5,67,47,27,0.00,40.00,11,5,16,0.02
2013-1-6,38,24,14,7,1,-4,48,37,26,0.00,40.00,8,4,11,0.01
2013-1-7,38,27,17,7,2,-4,48,35,21,0.00,40.00,9,5,13,0.00
2013-1-8,35,24,17,15,4,-4,64,42,29,0.00,40.00,10,5,13,0.00
2013-1-9,43,28,18,14,10,7,64,48,31,0.00,40.00,11,4,13,0.00
2013-1-10,42,31,25,23,11,2,78,44,19,0.00,40.00,15,8,29,0.00
2013-1-11,32,15,4,20,4,-7,89,63,36,0.00,40.00,20,12,45,0.00
2013-1-12,18,4,-3,0,-8,-100,79,61,31,0.00,40.00,13,6,19,0.01
2013-1-13,9,1,-5,-1,-8,-15,78,67,49,0.00,40.00,12,6,16,0.01
2013-1-14,7,-2,-7,-3,-10,-14,75,69,58,0.00,40.00,10,4,15,0.00
2013-1-15,10,0,-9,-4,-11,-18,69,59,47,0.00,40.00,10,4,14,0.00
2013-1-16,26,13,2,8,-2,-100,71,58,43,0.00,40.00,10,5,14,0.02
2013-1-17,37,21,13,15,10,8,80,63,40,0.00,40.00,7,4,9,0.01
2013-1-18,37,23,16,11,2,-100,68,47,30,0.00,40.00,9,5,14,0.01
2013-1-19,40,27,16,11,4,1,51,38,26,0.00,40.00,12,7,16,0.00
2013-1-20,38,27,19,6,0,-3,40,32,21,0.00,40.00,13,6,17,0.00
2013-1-21,40,27,18,5,1,-2,42,33,21,0.00,40.00,13,7,16,0.00
2013-1-22,42,28,20,0,-3,-6,34,26,16,0.00,40.00,11,6,14,0.00
2013-1-23,48,32,23,3,-4,-9,29,21,12,0.00,40.00,13,6,17,0.00
2013-1-24,42,32,28,28,13,1,97,52,26,0.00,40.00,16,4,21,0.00
2013-1-25,37,32,29,34,30,28,98,95,85,0.00,40.00,7,4,12,0.03
2013-1-26,41,32,28,31,29,24,98,88,58,0.00,40.00,9,5,13,0.03
2013-1-27,42,33,28,33,26,16,98,78,41,0.00,40.00,15,6,40,0.25
2013-1-28,35,25,14,27,21,9,95,83,53,0.00,40.00,19,10,38,0.03
2013-1-29,21,10,5,17,6,0,86,83,81,0.00,40.00,13,7,20,0.08
2013-1-30,15,11,6,12,7,2,87,84,82,0.00,40.00,16,8,21,0.03
2013-1-31,30,23,18,27,21,16,91,90,86,0.00,40.00,10,6,15,0.09
2013-2-1,31,24,19,25,20,14,88,82,78,0.00,40.00,14,8,20,0.01
2013-2-2,41,24,16,22,8,-100,77,58,40,0.00,40.00,11,5,16,0.11
2013-2-3,39,25,20,15,10,6,70,52,34,0.00,40.00,14,7,18,0.01
2013-2-4,34,24,15,16,10,2,68,54,39,0.00,40.00,13,7,17,0.00
2013-2-5,45,29,18,18,6,-100,60,44,33,0.00,40.00,12,7,16,0.00
2013-2-6,38,30,25,28,21,15,96,71,44,0.00,40.00,17,6,24,0.00
2013-2-7,41,26,19,22,12,-8,93,61,12,0.00,40.00,12,5,15,0.03
2013-2-8,44,30,22,26,11,-2,95,46,28,0.00,40.00,21,7,38,0.01
2013-2-9,28,22,14,23,17,7,93,83,68,0.00,40.00,13,7,26,0.04
2013-2-10,28,18,11,13,8,5,84,68,49,0.00,40.00,9,5,14,0.05
2013-2-11,25,14,9,13,10,5,87,82,57,0.00,40.00,17,6,25,0.01
2013-2-12,25,13,4,16,5,-1,84,71,54,0.00,40.00,11,4,16,0.02
2013-2-13,33,21,13,16,11,4,78,65,48,0.00,40.00,8,4,17,0.02
2013-2-14,30,23,17,22,13,6,89,67,49,0.00,40.00,16,8,28,0.01
2013-2-15,28,21,15,13,8,5,77,58,43,0.00,40.00,17,9,29,0.01
2013-2-16,37,24,13,12,8,3,68,51,35,0.00,40.00,12,8,18,0.00
2013-2-17,44,29,18,18,6,-1,89,41,15,0.00,40.00,24,12,38,0.00
2013-2-18,29,18,8,15,7,-1,89,62,35,0.00,40.00,17,8,28,0.00
2013-2-19,44,25,9,5,-1,-6,58,34,17,0.00,40.00,11,4,15,0.00
2013-2-20,35,26,21,21,8,1,92,49,31,0.00,40.00,18,9,30,0.00
2013-2-21,27,21,16,22,17,12,91,85,73,0.00,40.00,11,7,18,0.14
2013-2-22,24,17,12,16,9,0,88,71,47,0.00,40.00,14,7,21,0.05
2013-2-23,33,17,7,18,7,-3,91,67,46,0.00,40.00,13,7,20,0.01
2013-2-24,22,16,10,18,11,6,89,80,68,0.00,40.00,24,10,34,0.09
2013-2-25,34,18,7,8,6,3,83,60,33,0.00,40.00,14,5,20,0.01
2013-2-26,20,16,12,13,9,5,87,73,58,0.00,40.00,17,8,27,0.00
2013-2-27,28,16,5,7,3,-3,85,59,27,0.00,40.00,12,6,18,0.05
2013-2-28,33,18,5,15,2,-5,89,53,28,0.00,40.00,17,9,22,0.02
2013-3-1,37,26,17,24,18,14,91,74,53,0.00,40.00,17,5,24,0.01
2013-3-2,48,34,24,23,20,17,78,56,37,0.00,40.00,13,6,21,0.01
2013-3-3,46,35,29,29,21,14,97,60,36,0.00,40.00,18,8,31,0.00
2013-3-4,37,26,12,29,19,2,97,78,50,0.00,40.00,23,11,47,0.18
2013-3-5,46,24,7,9,2,-4,63,42,21,0.00,40.00,12,7,16,0.01
2013-3-6,53,38,25,18,10,4,43,32,18,0.00,40.00,19,10,35,0.01
2013-3-7,53,43,34,14,8,2,34,24,12,0.00,40.00,16,8,29,0.00
2013-3-8,49,38,28,28,16,7,92,45,25,0.00,40.00,11,7,20,0.00
2013-3-9,29,25,19,27,22,12,95,88,80,0.00,40.00,19,8,30,0.00
2013-3-10,35,25,14,17,12,5,81,60,44,0.00,40.00,12,6,22,0.25
2013-3-11,43,28,17,20,15,10,73,58,38,0.00,40.00,12,8,21,0.02
2013-3-12,47,35,27,27,22,18,87,58,35,0.00,40.00,14,7,25,0.00
2013-3-13,51,36,27,24,12,-100,64,44,23,0.00,40.00,10,6,17,0.00
2013-3-14,56,41,30,21,17,13,52,38,24,0.00,40.00,12,7,18,0.00
2013-3-15,59,44,35,24,19,16,47,36,22,0.00,40.00,13,9,20,0.00
2013-3-16,44,38,32,30,21,-100,82,60,36,0.00,40.00,16,8,31,0.03
2013-3-17,38,32,27,31,21,5,94,67,32,0.00,40.00,26,13,47,0.02
2013-3-18,37,29,21,12,7,4,52,41,31,0.00,40.00,20,14,36,0.02
2013-3-19,40,32,26,10,0,-16,47,29,12,0.00,40.00,20,10,31,0.00
2013-3-20,44,32,20,25,7,-11,71,38,19,0.00,40.00,13,9,31,0.00
2013-3-21,33,29,22,31,25,15,96,84,67,0.00,40.00,29,10,47,0.22
2013-3-22,36,25,17,19,13,7,85,64,29,0.00,40.00,22,8,33,0.01
2013-3-23,26,16,9,12,5,-2,87,64,39,0.00,40.00,18,10,30,0.02
2013-3-24,23,12,4,7,0,-6,78,60,40,0.00,40.00,24,8,36,0.01
2013-3-25,34,17,2,4,-4,-10,59,42,22,0.00,40.00,12,8,19,0.00
2013-3-26,52,32,15,18,9,-1,49,39,24,0.00,40.00,16,9,25,0.00
2013-3-27,53,40,30,24,20,15,68,49,23,0.00,40.00,12,7,21,0.00
2013-3-28,53,48,41,23,18,15,39,31,26,0.00,40.00,11,5,23,0.00
2013-3-29,55,44,36,27,22,15,68,43,30,0.00,40.00,13,8,27,0.00
2013-3-30,51,41,32,28,23,16,77,52,26,0.00,40.00,17,10,29,0.00
2013-3-31,56,43,29,23,18,13,60,39,20,0.00,40.00,12,7,22,0.00
2013-4-1,55,42,36,31,21,15,67,44,27,0.00,40.00,18,9,32,0.00
2013-4-2,45,35,30,32,28,23,96,76,41,0.00,40.00,17,10,25,0.00
2013-4-3,50,38,29,28,24,16,94,61,25,0.00,40.00,13,8,22,0.00
2013-4-4,58,45,31,25,19,14,58,37,21,0.00,40.00,14,8,20,0.00
2013-4-5,57,46,36,34,21,12,94,41,22,0.00,40.00,29,10,46,0.02
2013-4-6,51,39,32,35,28,16,97,71,28,0.00,40.00,18,6,25,0.02
2013-4-7,50,39,30,33,27,14,96,66,28,0.00,40.00,17,6,28,0.04
2013-4-8,55,41,32,32,23,14,97,53,22,0.00,40.00,20,10,41,0.01
2013-4-9,32,25,11,31,23,7,98,93,85,0.00,40.00,18,9,27,0.13
2013-4-10,27,17,6,20,12,2,86,79,65,0.00,40.00,14,6,22,0.17
2013-4-11,43,30,20,28,21,11,84,70,48,0.00,40.00,13,6,23,0.02
2013-4-12,49,37,29,33,22,10,96,63,22,0.00,40.00,13,7,23,0.06
2013-4-13,51,40,29,31,17,10,95,42,21,0.00,40.00,24,13,45,0.01
2013-4-14,37,30,21,30,23,17,97,77,46,0.00,40.00,17,11,38,0.28
2013-4-15,35,29,26,30,26,22,96,90,63,0.00,40.00,19,8,29,0.02
2013-4-16,52,34,24,30,25,19,96,75,29,0.00,40.00,27,10,49,0.35
2013-4-17,25,20,12,21,17,7,93,86,69,0.00,40.00,18,8,29,0.04
2013-4-18,28,17,8,10,5,1,85,60,39,0.00,40.00,17,8,28,0.04
2013-4-19,40,27,13,26,13,4,97,58,37,0.00,40.00,13,8,24,0.01
2013-4-20,41,32,26,32,28,25,99,87,61,0.00,40.00,17,7,27,0.09
2013-4-21,49,39,29,33,25,14,99,64,26,0.00,40.00,13,6,24,0.12
2013-4-22,47,40,31,30,23,15,87,52,33,0.00,40.00,25,11,37,0.05
2013-4-23,35,28,22,27,14,3,97,62,27,0.00,40.00,18,10,28,0.06
2013-4-24,45,31,17,10,6,2,57,37,21,0.00,40.00,17,10,31,0.02
2013-4-25,57,42,26,18,12,8,49,32,18,0.00,40.00,14,7,23,0.00
2013-4-26,59,46,33,20,12,6,46,28,12,0.00,40.00,12,7,23,0.00
2013-4-27,60,48,33,20,14,12,42,27,17,0.00,40.00,15,8,26,0.00
2013-4-28,64,53,35,23,18,14,42,26,16,0.00,40.00,15,9,26,0.00
2013-4-29,65,54,42,26,20,14,45,28,15,0.00,40.00,17,10,32,0.00
2013-4-30,63,57,44,32,21,16,62,28,17,0.00,40.00,29,15,38,0.00
2013-5-1,39,30,25,34,29,21,99,95,82,0.00,40.00,23,9,34,0.40
2013-5-2,43,32,18,23,16,9,88,56,29,0.00,40.00,13,5,20,0.01
2013-5-3,57,39,24,20,14,9,63,40,19,0.00,40.00,14,9,25,0.00
2013-5-4,62,47,35,25,17,13,49,32,16,0.00,40.00,14,7,28,0.00
2013-5-5,62,49,39,28,22,14,54,37,17,0.00,40.00,15,7,28,0.00
2013-5-6,58,45,36,39,30,24,99,60,32,0.00,40.00,21,7,33,0.27
2013-5-7,50,39,34,38,35,33,100,87,54,0.00,40.00,15,8,26,0.25
2013-5-8,41,35,32,39,34,31,100,95,79,0.00,40.00,9,5,20,0.23
2013-5-9,52,39,32,40,33,29,100,81,45,0.00,40.00,15,4,25,0.16
2013-5-10,59,47,33,35,26,-100,79,51,26,0.00,40.00,19,8,32,0.14
2013-5-11,65,50,36,30,26,20,62,42,20,0.00,40.00,19,8,29,0.00
2013-5-12,67,56,43,34,28,25,53,36,23,0.00,40.00,12,7,23,0.00
2013-5-13,75,58,44,36,30,27,52,37,19,0.00,40.00,13,10,37,0.00
2013-5-14,81,54,46,38,33,29,63,46,17,0.00,40.00,25,12,39,0.00
2013-5-15,67,53,43,39,36,32,74,54,28,0.00,40.00,18,8,30,0.00
2013-5-16,68,50,40,40,18,-100,93,51,22,0.00,40.00,19,8,40,0.00
2013-5-17,71,59,48,28,13,-100,42,21,11,0.00,40.00,13,10,33,0.00
2013-5-18,61,47,36,39,30,16,97,58,22,0.00,40.00,17,9,32,0.16
2013-5-19,46,39,35,36,33,30,99,82,58,0.00,40.00,11,5,22,0.28
2013-5-20,48,41,35,41,34,29,93,78,62,0.00,40.00,15,5,25,0.21
2013-5-21,61,48,36,38,30,28,81,54,28,0.00,40.00,15,7,30,0.02
2013-5-22,71,55,40,31,24,15,58,35,14,0.00,40.00,16,10,29,0.00
2013-5-23,75,62,49,28,20,7,38,22,10,0.00,40.00,19,12,40,0.00
2013-5-24,71,62,53,25,16,7,22,16,11,0.00,40.00,19,12,40,0.00
2013-5-25,71,60,48,21,16,10,30,19,11,0.00,40.00,13,9,37,0.00
2013-5-26,74,60,46,28,18,9,32,20,11,0.00,40.00,14,9,25,0.00
2013-5-27,67,58,47,26,18,10,25,21,17,0.00,40.00,10,6,23,0.00
2013-5-28,68,54,44,29,23,18,47,30,19,0.00,40.00,15,10,28,0.00
2013-5-29,50,41,35,43,36,29,100,84,49,0.00,40.00,16,8,27,0.21
2013-5-30,57,46,37,34,26,20,77,49,24,0.00,40.00,18,10,39,0.01
2013-5-31,58,49,38,26,18,10,52,31,16,0.00,40.00,22,13,38,0.00
2013-6-1,66,52,37,29,22,14,45,31,22,0.00,40.00,11,8,24,0.00
2013-6-2,74,58,40,36,24,17,53,30,14,0.00,40.00,14,9,26,0.00
2013-6-3,74,62,50,33,26,21,32,26,17,0.00,40.00,16,9,34,0.00
2013-6-4,74,62,46,36,29,22,49,30,17,0.00,40.00,19,9,37,0.00
2013-6-5,71,60,48,37,30,22,51,33,21,0.00,40.00,27,11,37,0.00
2013-6-6,74,60,43,38,29,25,48,33,19,0.00,40.00,13,8,23,0.00
2013-6-7,74,61,48,40,33,28,53,37,20,0.00,40.00,17,10,32,0.00
2013-6-8,74,65,51,40,33,29,48,32,21,0.00,40.00,18,10,33,0.00
2013-6-9,80,67,51,39,32,26,43,28,18,0.00,40.00,13,7,21,0.00
2013-6-10,84,69,56,43,29,20,34,24,13,0.00,40.00,15,10,25,0.00
2013-6-11,76,69,61,26,22,16,24,17,13,0.00,40.00,22,13,50,0.00
2013-6-12,79,66,51,38,25,15,39,22,13,0.00,40.00,19,9,33,0.00
2013-6-13,79,67,56,36,27,19,31,22,17,0.00,40.00,23,11,44,0.00
2013-6-14,76,68,57,41,27,14,39,23,11,0.00,40.00,15,8,29,0.00
2013-6-15,76,64,50,35,28,16,33,26,20,0.00,40.00,21,7,48,0.00
2013-6-16,66,55,50,47,37,29,72,53,33,0.00,40.00,21,10,34,0.12
2013-6-17,73,59,47,47,37,32,67,46,23,0.00,40.00,17,8,33,0.01
2013-6-18,80,64,50,40,32,21,50,33,16,0.00,40.00,19,9,26,0.00
2013-6-19,77,68,52,34,16,7,27,14,9,0.00,40.00,20,13,43,0.00
2013-6-20,75,65,53,34,20,6,27,18,11,0.00,40.00,13,9,29,0.00
2013-6-22,73,69,62,33,23,17,26,18,14,0.00,40.00,17,12,33,0.00
2013-6-23,78,67,47,37,27,16,38,24,15,0.00,40.00,15,9,33,0.00
2013-6-24,73,64,53,25,21,18,31,20,13,0.00,40.00,21,11,35,0.00
2013-6-25,76,68,59,36,29,18,32,24,20,0.00,40.00,16,8,28,0.00
2013-6-26,82,69,52,43,34,28,42,29,20,0.00,40.00,12,7,21,0.00
2013-6-27,87,75,57,46,36,29,40,26,13,0.00,40.00,12,6,18,0.00
2013-6-28,87,75,61,50,36,25,39,26,14,0.00,40.00,30,9,42,0.00
2013-6-29,86,68,60,48,40,34,55,38,24,0.00,40.00,16,10,32,0.04
2013-6-30,75,66,55,51,44,38,53,44,35,0.00,40.00,15,7,26,0.07
2013-7-1,81,68,53,46,39,31,56,37,21,0.00,40.00,18,8,28,0.03
2013-7-2,79,69,53,44,39,29,51,34,24,0.00,40.00,16,8,28,0.00
2013-7-3,81,68,54,45,40,33,68,39,22,0.00,40.00,22,9,36,0.00
2013-7-4,80,65,50,49,42,37,67,45,25,0.00,40.00,13,7,20,0.00
2013-7-5,79,67,54,52,47,38,81,51,33,0.00,40.00,17,10,35,0.07
2013-7-6,79,64,54,53,48,40,85,58,33,0.00,40.00,23,9,35,0.07
2013-7-7,84,68,55,49,44,41,66,44,27,0.00,40.00,16,8,31,0.00
2013-7-8,80,62,51,55,46,34,96,61,22,0.00,40.00,17,7,31,0.08
2013-7-9,82,70,56,47,38,33,45,32,23,0.00,40.00,15,8,27,0.00
2013-7-10,86,73,62,50,37,-100,46,30,18,0.00,40.00,13,7,24,0.00
2013-7-11,87,71,62,47,41,33,57,37,17,0.00,40.00,13,8,34,0.02
2013-7-12,83,64,54,53,50,46,91,66,29,0.00,40.00,15,7,37,0.12
2013-7-13,80,66,54,56,50,43,88,60,34,0.00,40.00,17,7,32,0.10
2013-7-14,82,65,53,56,49,45,94,57,31,0.00,40.00,14,7,27,0.06
2013-7-15,84,65,56,51,46,43,72,52,25,0.00,40.00,12,6,25,0.02
2013-7-16,83,74,66,52,47,43,50,39,26,0.00,40.00,11,7,21,0.01
2013-7-17,85,68,58,52,46,42,64,48,27,0.00,40.00,16,6,32,0.03
2013-7-18,80,65,55,52,48,43,78,56,32,0.00,40.00,25,10,42,0.01
2013-7-19,84,64,51,52,47,36,90,59,18,0.00,40.00,15,8,27,0.00
2013-7-20,86,68,54,49,39,-100,69,40,15,0.00,40.00,15,8,20,0.00
2013-7-21,87,74,56,42,31,26,38,22,11,0.00,40.00,10,7,23,0.00
2013-7-22,88,74,59,42,30,15,33,22,11,0.00,40.00,12,8,20,0.00
2013-7-23,89,76,59,36,26,17,23,16,10,0.00,40.00,15,7,26,0.00
2013-7-24,75,68,62,41,37,29,42,32,24,0.00,40.00,15,7,29,0.00
2013-7-25,77,64,54,49,43,38,65,48,29,0.00,40.00,12,6,26,0.01
2013-7-26,85,68,51,47,41,34,76,44,18,0.00,40.00,12,6,21,0.01
2013-7-27,76,64,56,48,41,34,71,45,32,0.00,40.00,11,7,39,0.00
2013-7-28,65,54,50,57,51,47,100,89,58,0.00,40.00,12,8,21,0.54
2013-7-29,70,58,49,55,49,42,100,75,49,0.00,40.00,12,5,24,0.11
2013-7-30,73,61,48,47,42,40,76,53,36,0.00,40.00,16,8,25,0.01
2013-7-31,82,65,52,46,39,30,61,41,20,0.00,40.00,12,8,19,0.00
2013-8-1,64,56,52,52,44,34,97,68,37,0.00,40.00,17,10,21,0.14
2013-8-2,79,62,50,54,47,40,92,62,31,0.00,40.00,10,6,17,0.01
2013-8-3,78,64,55,49,44,41,62,48,28,0.00,40.00,14,8,20,0.00
2013-8-4,78,59,52,51,45,39,97,64,26,0.00,40.00,17,9,33,0.12
2013-8-5,74,58,48,52,48,45,95,73,39,0.00,40.00,12,5,18,0.12
2013-8-6,72,57,50,52,47,43,90,72,42,0.00,40.00,16,8,35,0.10
2013-8-7,69,56,50,46,42,39,81,61,37,0.00,40.00,19,8,34,0.11
2013-8-8,71,57,50,48,42,38,75,59,37,0.00,40.00,17,6,30,0.11
2013-8-9,72,58,48,46,39,32,74,52,33,0.00,40.00,18,7,26,0.00
2013-8-10,74,58,51,43,38,32,69,49,28,0.00,40.00,21,9,47,0.05
2013-8-11,75,59,46,43,38,33,76,50,23,0.00,40.00,11,6,23,0.05
2013-8-21,81,65,51,52,45,39,87,53,24,0.00,40.00,12,6,22,0.02
2013-8-22,81,66,55,50,44,39,81,47,28,0.00,40.00,16,8,23,0.03
2013-8-23,76,60,51,50,48,45,87,66,37,0.00,40.00,16,6,29,0.01
2013-8-24,72,60,50,50,44,38,87,58,33,0.00,40.00,19,7,34,0.04
2013-8-25,68,58,54,58,49,42,98,72,47,0.00,40.00,15,5,24,0.17
2013-8-26,73,62,53,56,52,48,98,74,43,0.00,40.00,14,6,28,0.04
2013-8-27,75,59,53,52,50,48,86,73,38,0.00,40.00,9,6,17,0.01
2013-10-25,53,44,35,27,22,18,55,41,33,0.00,40.00,9,6,15,0.00
2013-10-26,56,46,34,27,22,14,66,42,19,0.00,40.00,10,6,19,0.00
2013-10-27,57,45,33,24,20,15,55,38,25,0.00,40.00,12,8,25,0.00
2013-10-28,58,46,38,28,17,-100,62,35,18,0.00,40.00,20,10,34,0.00
2013-10-29,46,38,30,31,22,11,98,62,25,0.00,40.00,17,7,33,0.00
2013-10-30,38,28,25,29,26,24,97,92,64,0.00,40.00,13,6,22,0.31
2013-10-31,30,26,24,27,25,23,96,94,90,0.00,40.00,8,5,14,0.31
2013-11-1,32,28,26,29,26,25,96,94,87,0.00,40.00,12,7,21,0.06
2013-12-26,37,23,14,13,5,-2,64,48,23,0.00,40.00,13,7,18,0.07
2013-12-27,38,28,19,17,13,8,66,55,40,0.00,40.00,9,5,12,0.02
2013-12-28,36,27,22,19,15,12,73,59,48,0.00,40.00,11,7,14,0.02
2013-12-29,27,20,15,16,12,6,89,69,50,0.00,40.00,13,8,17,0.00
2013-12-30,34,24,16,14,10,5,69,55,41,0.00,40.00,12,5,15,0.00
2013-12-31,30,24,19,21,14,7,92,66,55,0.00,40.00,11,5,16,0.00
2014-1-1,30,24,18,22,14,4,93,70,42,0.00,40.00,17,10,28,0.04